sensor_id;sensor_type;location;lat;lon;timestamp;temperature;humidity
20598;DHT22;10457;48.770;11.446;2022-09-03T00:04:21;14.40;70.90
20598;DHT22;10457;48.770;11.446;2022-09-03T00:09:50;14.40;71.60
20598;DHT22;10457;48.770;11.446;2022-09-03T00:15:17;14.40;71.20
20598;DHT22;10457;48.770;11.446;2022-09-03T00:20:43;14.40;72.60
20598;DHT22;10457;48.770;11.446;2022-09-03T00:26:18;14.40;72.60
20598;DHT22;10457;48.770;11.446;2022-09-03T00:31:49;14.40;71.60
20598;DHT22;10457;48.770;11.446;2022-09-03T00:37:12;14.40;71.10
20598;DHT22;10457;48.770;11.446;2022-09-03T00:42:41;14.50;71.10
20598;DHT22;10457;48.770;11.446;2022-09-03T00:48:12;14.60;71.00
20598;DHT22;10457;48.770;11.446;2022-09-03T00:53:42;14.60;70.40
20598;DHT22;10457;48.770;11.446;2022-09-03T00:59:24;14.60;70.40
20598;DHT22;10457;48.770;11.446;2022-09-03T01:04:57;14.60;70.50
20598;DHT22;10457;48.770;11.446;2022-09-03T01:10:26;14.60;70.40
20598;DHT22;10457;48.770;11.446;2022-09-03T01:16:01;14.60;69.80
20598;DHT22;10457;48.770;11.446;2022-09-03T01:21:46;14.70;70.40
20598;DHT22;10457;48.770;11.446;2022-09-03T01:27:35;14.70;70.20
20598;DHT22;10457;48.770;11.446;2022-09-03T01:33:09;14.70;70.60
20598;DHT22;10457;48.770;11.446;2022-09-03T01:38:39;14.60;72.10
20598;DHT22;10457;48.770;11.446;2022-09-03T01:44:12;14.60;72.30
20598;DHT22;10457;48.770;11.446;2022-09-03T01:49:44;14.70;72.00
20598;DHT22;10457;48.770;11.446;2022-09-03T01:55:17;14.70;71.00
20598;DHT22;10457;48.770;11.446;2022-09-03T02:00:48;14.70;71.30
20598;DHT22;10457;48.770;11.446;2022-09-03T02:06:16;14.60;71.20
20598;DHT22;10457;48.770;11.446;2022-09-03T02:11:40;14.70;71.10
20598;DHT22;10457;48.770;11.446;2022-09-03T02:17:04;14.70;71.70
20598;DHT22;10457;48.770;11.446;2022-09-03T02:22:28;14.60;71.20
20598;DHT22;10457;48.770;11.446;2022-09-03T02:27:50;14.80;70.40
20598;DHT22;10457;48.770;11.446;2022-09-03T02:33:13;14.70;71.50
20598;DHT22;10457;48.770;11.446;2022-09-03T02:38:36;14.70;70.80
20598;DHT22;10457;48.770;11.446;2022-09-03T02:44:03;14.60;69.50
20598;DHT22;10457;48.770;11.446;2022-09-03T02:49:27;14.60;70.20
20598;DHT22;10457;48.770;11.446;2022-09-03T02:54:51;14.60;71.00
20598;DHT22;10457;48.770;11.446;2022-09-03T03:00:13;14.60;70.50
20598;DHT22;10457;48.770;11.446;2022-09-03T03:05:41;14.50;70.10
20598;DHT22;10457;48.770;11.446;2022-09-03T03:11:06;14.50;72.10
20598;DHT22;10457;48.770;11.446;2022-09-03T03:16:27;14.50;70.50
20598;DHT22;10457;48.770;11.446;2022-09-03T03:21:49;14.30;70.50
20598;DHT22;10457;48.770;11.446;2022-09-03T03:27:12;14.20;71.10
20598;DHT22;10457;48.770;11.446;2022-09-03T03:32:34;14.10;72.30
20598;DHT22;10457;48.770;11.446;2022-09-03T03:37:57;14.00;72.20
20598;DHT22;10457;48.770;11.446;2022-09-03T03:43:19;13.90;72.60
20598;DHT22;10457;48.770;11.446;2022-09-03T03:48:40;13.80;73.20
20598;DHT22;10457;48.770;11.446;2022-09-03T03:54:02;13.70;74.20
20598;DHT22;10457;48.770;11.446;2022-09-03T03:59:25;13.60;75.60
20598;DHT22;10457;48.770;11.446;2022-09-03T04:04:47;13.50;77.20
20598;DHT22;10457;48.770;11.446;2022-09-03T04:10:09;13.50;75.50
20598;DHT22;10457;48.770;11.446;2022-09-03T04:15:32;13.40;75.80
20598;DHT22;10457;48.770;11.446;2022-09-03T04:20:58;13.30;76.20
20598;DHT22;10457;48.770;11.446;2022-09-03T04:26:24;13.30;78.00
20598;DHT22;10457;48.770;11.446;2022-09-03T04:31:48;13.20;76.50
20598;DHT22;10457;48.770;11.446;2022-09-03T04:37:26;13.30;77.60
20598;DHT22;10457;48.770;11.446;2022-09-03T04:42:48;13.30;77.40
20598;DHT22;10457;48.770;11.446;2022-09-03T04:48:11;13.40;76.70
20598;DHT22;10457;48.770;11.446;2022-09-03T04:53:34;13.50;76.70
20598;DHT22;10457;48.770;11.446;2022-09-03T04:58:58;13.60;76.50
20598;DHT22;10457;48.770;11.446;2022-09-03T05:04:22;13.60;75.60
20598;DHT22;10457;48.770;11.446;2022-09-03T05:09:44;13.70;76.00
20598;DHT22;10457;48.770;11.446;2022-09-03T05:15:06;13.80;75.60
20598;DHT22;10457;48.770;11.446;2022-09-03T05:20:30;14.10;73.50
20598;DHT22;10457;48.770;11.446;2022-09-03T05:25:56;14.70;72.80
20598;DHT22;10457;48.770;11.446;2022-09-03T05:31:19;15.00;69.10
20598;DHT22;10457;48.770;11.446;2022-09-03T05:36:42;15.20;68.90
20598;DHT22;10457;48.770;11.446;2022-09-03T05:42:06;15.20;68.30
20598;DHT22;10457;48.770;11.446;2022-09-03T05:47:27;15.10;69.40
20598;DHT22;10457;48.770;11.446;2022-09-03T05:52:51;14.80;71.50
20598;DHT22;10457;48.770;11.446;2022-09-03T05:58:12;14.60;75.30
20598;DHT22;10457;48.770;11.446;2022-09-03T06:03:34;14.50;73.60
20598;DHT22;10457;48.770;11.446;2022-09-03T06:08:59;14.30;77.50
20598;DHT22;10457;48.770;11.446;2022-09-03T06:14:22;14.10;86.50
20598;DHT22;10457;48.770;11.446;2022-09-03T06:19:44;14.00;84.40
20598;DHT22;10457;48.770;11.446;2022-09-03T06:25:07;14.00;87.80
20598;DHT22;10457;48.770;11.446;2022-09-03T06:30:29;14.10;88.80
20598;DHT22;10457;48.770;11.446;2022-09-03T06:35:53;14.30;86.00
20598;DHT22;10457;48.770;11.446;2022-09-03T06:41:21;14.50;87.60
20598;DHT22;10457;48.770;11.446;2022-09-03T06:46:44;14.60;90.40
20598;DHT22;10457;48.770;11.446;2022-09-03T06:52:07;14.80;83.50
20598;DHT22;10457;48.770;11.446;2022-09-03T06:57:30;15.20;80.30
20598;DHT22;10457;48.770;11.446;2022-09-03T07:02:55;15.60;83.00
20598;DHT22;10457;48.770;11.446;2022-09-03T07:08:18;15.80;79.00
20598;DHT22;10457;48.770;11.446;2022-09-03T07:13:43;16.10;76.20
20598;DHT22;10457;48.770;11.446;2022-09-03T07:19:07;16.40;76.80
20598;DHT22;10457;48.770;11.446;2022-09-03T07:24:29;16.10;73.30
20598;DHT22;10457;48.770;11.446;2022-09-03T07:29:52;16.20;75.90
20598;DHT22;10457;48.770;11.446;2022-09-03T07:35:14;16.20;72.50
20598;DHT22;10457;48.770;11.446;2022-09-03T07:40:35;15.90;73.30
20598;DHT22;10457;48.770;11.446;2022-09-03T07:45:59;16.00;74.00
20598;DHT22;10457;48.770;11.446;2022-09-03T07:51:23;15.90;79.80
20598;DHT22;10457;48.770;11.446;2022-09-03T07:56:45;16.20;73.60
20598;DHT22;10457;48.770;11.446;2022-09-03T08:02:08;16.10;77.20
20598;DHT22;10457;48.770;11.446;2022-09-03T08:07:30;16.20;74.00
20598;DHT22;10457;48.770;11.446;2022-09-03T08:12:52;16.70;71.70
20598;DHT22;10457;48.770;11.446;2022-09-03T08:18:15;17.40;74.20
20598;DHT22;10457;48.770;11.446;2022-09-03T08:23:37;18.70;63.70
20598;DHT22;10457;48.770;11.446;2022-09-03T08:29:00;19.50;62.20
20598;DHT22;10457;48.770;11.446;2022-09-03T08:34:23;19.60;62.20
20598;DHT22;10457;48.770;11.446;2022-09-03T08:39:44;19.40;64.80
20598;DHT22;10457;48.770;11.446;2022-09-03T08:45:09;19.50;64.70
20598;DHT22;10457;48.770;11.446;2022-09-03T08:50:39;19.50;61.20
20598;DHT22;10457;48.770;11.446;2022-09-03T08:56:07;19.60;61.20
20598;DHT22;10457;48.770;11.446;2022-09-03T09:01:37;19.80;60.80
20598;DHT22;10457;48.770;11.446;2022-09-03T09:07:10;19.20;61.40
20598;DHT22;10457;48.770;11.446;2022-09-03T09:12:41;18.70;64.30
20598;DHT22;10457;48.770;11.446;2022-09-03T09:18:13;18.60;65.60
20598;DHT22;10457;48.770;11.446;2022-09-03T09:23:45;18.50;66.30
20598;DHT22;10457;48.770;11.446;2022-09-03T09:29:08;18.40;67.50
20598;DHT22;10457;48.770;11.446;2022-09-03T09:34:33;18.60;67.30
20598;DHT22;10457;48.770;11.446;2022-09-03T09:39:59;19.80;67.70
20598;DHT22;10457;48.770;11.446;2022-09-03T09:45:22;21.20;61.50
20598;DHT22;10457;48.770;11.446;2022-09-03T09:50:43;21.90;58.10
20598;DHT22;10457;48.770;11.446;2022-09-03T09:56:07;21.90;58.90
20598;DHT22;10457;48.770;11.446;2022-09-03T10:01:29;21.80;57.80
20598;DHT22;10457;48.770;11.446;2022-09-03T10:06:53;21.40;59.00
20598;DHT22;10457;48.770;11.446;2022-09-03T10:12:21;21.30;60.70
20598;DHT22;10457;48.770;11.446;2022-09-03T10:18:07;22.20;59.40
20598;DHT22;10457;48.770;11.446;2022-09-03T10:23:38;22.60;58.50
20598;DHT22;10457;48.770;11.446;2022-09-03T10:29:09;23.10;58.10
20598;DHT22;10457;48.770;11.446;2022-09-03T10:34:41;24.90;56.40
20598;DHT22;10457;48.770;11.446;2022-09-03T10:40:16;25.70;51.60
20598;DHT22;10457;48.770;11.446;2022-09-03T10:45:55;24.60;54.10
20598;DHT22;10457;48.770;11.446;2022-09-03T10:51:25;23.10;57.40
20598;DHT22;10457;48.770;11.446;2022-09-03T10:57:02;22.10;59.80
20598;DHT22;10457;48.770;11.446;2022-09-03T11:02:46;21.50;63.60
20598;DHT22;10457;48.770;11.446;2022-09-03T11:08:26;21.30;66.40
20598;DHT22;10457;48.770;11.446;2022-09-03T11:13:54;21.80;62.70
20598;DHT22;10457;48.770;11.446;2022-09-03T11:19:25;22.30;61.80
20598;DHT22;10457;48.770;11.446;2022-09-03T11:24:54;23.00;59.90
20598;DHT22;10457;48.770;11.446;2022-09-03T11:30:23;22.20;61.70
20598;DHT22;10457;48.770;11.446;2022-09-03T11:35:54;21.20;65.50
20598;DHT22;10457;48.770;11.446;2022-09-03T11:41:27;20.70;67.00
20598;DHT22;10457;48.770;11.446;2022-09-03T11:46:54;20.70;69.80
20598;DHT22;10457;48.770;11.446;2022-09-03T11:52:30;20.80;69.30
20598;DHT22;10457;48.770;11.446;2022-09-03T11:57:52;21.00;70.50
20598;DHT22;10457;48.770;11.446;2022-09-03T12:03:14;20.90;70.30
20598;DHT22;10457;48.770;11.446;2022-09-03T12:08:53;20.70;69.20
20598;DHT22;10457;48.770;11.446;2022-09-03T12:14:29;20.30;70.90
20598;DHT22;10457;48.770;11.446;2022-09-03T12:19:54;20.20;72.20
20598;DHT22;10457;48.770;11.446;2022-09-03T12:25:17;20.50;71.50
20598;DHT22;10457;48.770;11.446;2022-09-03T12:30:42;20.80;71.20
20598;DHT22;10457;48.770;11.446;2022-09-03T12:36:08;21.30;71.50
20598;DHT22;10457;48.770;11.446;2022-09-03T12:41:31;23.50;65.60
20598;DHT22;10457;48.770;11.446;2022-09-03T12:46:59;25.90;56.80
20598;DHT22;10457;48.770;11.446;2022-09-03T12:52:26;28.70;48.90
20598;DHT22;10457;48.770;11.446;2022-09-03T12:57:53;26.30;53.40
20598;DHT22;10457;48.770;11.446;2022-09-03T13:03:23;24.00;58.00
20598;DHT22;10457;48.770;11.446;2022-09-03T13:08:50;22.90;63.00
20598;DHT22;10457;48.770;11.446;2022-09-03T13:14:15;22.60;64.70
20598;DHT22;10457;48.770;11.446;2022-09-03T13:19:50;22.60;64.90
20598;DHT22;10457;48.770;11.446;2022-09-03T13:25:36;23.10;64.60
20598;DHT22;10457;48.770;11.446;2022-09-03T13:31:08;26.90;53.50
20598;DHT22;10457;48.770;11.446;2022-09-03T13:36:40;25.70;55.80
20598;DHT22;10457;48.770;11.446;2022-09-03T13:42:08;24.30;59.40
20598;DHT22;10457;48.770;11.446;2022-09-03T13:47:39;23.50;61.30
20598;DHT22;10457;48.770;11.446;2022-09-03T13:53:31;22.90;63.90
20598;DHT22;10457;48.770;11.446;2022-09-03T13:59:04;22.70;65.30
20598;DHT22;10457;48.770;11.446;2022-09-03T14:04:39;22.50;65.50
20598;DHT22;10457;48.770;11.446;2022-09-03T14:10:20;22.20;67.30
20598;DHT22;10457;48.770;11.446;2022-09-03T14:15:48;22.00;68.30
20598;DHT22;10457;48.770;11.446;2022-09-03T14:21:16;21.80;67.80
20598;DHT22;10457;48.770;11.446;2022-09-03T14:26:49;21.70;67.70
20598;DHT22;10457;48.770;11.446;2022-09-03T14:32:31;21.40;68.80
20598;DHT22;10457;48.770;11.446;2022-09-03T14:38:25;21.20;70.80
20598;DHT22;10457;48.770;11.446;2022-09-03T14:44:08;21.20;71.90
20598;DHT22;10457;48.770;11.446;2022-09-03T14:49:51;21.40;70.00
20598;DHT22;10457;48.770;11.446;2022-09-03T14:55:30;21.60;70.70
20598;DHT22;10457;48.770;11.446;2022-09-03T15:01:02;21.60;70.50
20598;DHT22;10457;48.770;11.446;2022-09-03T15:06:38;21.70;70.10
20598;DHT22;10457;48.770;11.446;2022-09-03T15:12:15;21.60;71.10
20598;DHT22;10457;48.770;11.446;2022-09-03T15:17:46;21.30;72.00
20598;DHT22;10457;48.770;11.446;2022-09-03T15:23:24;21.50;72.40
20598;DHT22;10457;48.770;11.446;2022-09-03T15:29:09;21.60;71.50
20598;DHT22;10457;48.770;11.446;2022-09-03T15:34:58;21.50;75.00
20598;DHT22;10457;48.770;11.446;2022-09-03T15:40:29;21.50;73.40
20598;DHT22;10457;48.770;11.446;2022-09-03T15:45:55;21.50;65.30
20598;DHT22;10457;48.770;11.446;2022-09-03T15:51:24;21.10;64.80
20598;DHT22;10457;48.770;11.446;2022-09-03T15:56:49;21.00;66.30
20598;DHT22;10457;48.770;11.446;2022-09-03T16:02:17;20.90;65.90
20598;DHT22;10457;48.770;11.446;2022-09-03T16:08:06;20.70;67.80
20598;DHT22;10457;48.770;11.446;2022-09-03T16:13:42;20.60;68.80
20598;DHT22;10457;48.770;11.446;2022-09-03T16:19:14;20.30;70.40
20598;DHT22;10457;48.770;11.446;2022-09-03T16:24:42;20.30;70.90
20598;DHT22;10457;48.770;11.446;2022-09-03T16:30:09;20.00;73.70
20598;DHT22;10457;48.770;11.446;2022-09-03T16:35:41;19.80;78.00
20598;DHT22;10457;48.770;11.446;2022-09-03T16:41:17;19.60;84.10
20598;DHT22;10457;48.770;11.446;2022-09-03T16:46:48;19.40;85.00
20598;DHT22;10457;48.770;11.446;2022-09-03T16:52:19;19.40;86.60
20598;DHT22;10457;48.770;11.446;2022-09-03T16:57:56;19.40;86.60
20598;DHT22;10457;48.770;11.446;2022-09-03T17:09:37;19.20;88.00
20598;DHT22;10457;48.770;11.446;2022-09-03T17:15:21;19.10;88.90
20598;DHT22;10457;48.770;11.446;2022-09-03T17:21:02;19.20;89.40
20598;DHT22;10457;48.770;11.446;2022-09-03T17:26:35;19.30;90.00
20598;DHT22;10457;48.770;11.446;2022-09-03T17:32:11;19.40;85.80
20598;DHT22;10457;48.770;11.446;2022-09-03T17:37:50;19.10;87.70
20598;DHT22;10457;48.770;11.446;2022-09-03T17:43:23;18.90;89.20
20598;DHT22;10457;48.770;11.446;2022-09-03T17:48:49;18.70;90.70
20598;DHT22;10457;48.770;11.446;2022-09-03T17:54:31;18.40;92.60
20598;DHT22;10457;48.770;11.446;2022-09-03T18:00:00;18.30;94.40
20598;DHT22;10457;48.770;11.446;2022-09-03T18:05:33;18.10;97.40
20598;DHT22;10457;48.770;11.446;2022-09-03T18:11:08;17.90;99.90
20598;DHT22;10457;48.770;11.446;2022-09-03T18:16:34;17.80;99.90
20598;DHT22;10457;48.770;11.446;2022-09-03T18:22:01;17.70;99.90
20598;DHT22;10457;48.770;11.446;2022-09-03T18:27:44;17.80;99.90
20598;DHT22;10457;48.770;11.446;2022-09-03T18:33:26;17.70;99.90
20598;DHT22;10457;48.770;11.446;2022-09-03T18:39:11;17.60;99.90
20598;DHT22;10457;48.770;11.446;2022-09-03T18:45:01;17.50;99.90
20598;DHT22;10457;48.770;11.446;2022-09-03T18:50:49;17.50;99.90
20598;DHT22;10457;48.770;11.446;2022-09-03T18:56:35;17.40;99.90
20598;DHT22;10457;48.770;11.446;2022-09-03T19:02:26;17.40;99.90
20598;DHT22;10457;48.770;11.446;2022-09-03T19:08:14;17.40;99.90
20598;DHT22;10457;48.770;11.446;2022-09-03T19:14:03;17.30;99.90
20598;DHT22;10457;48.770;11.446;2022-09-03T19:19:58;17.20;99.90
20598;DHT22;10457;48.770;11.446;2022-09-03T19:25:42;17.20;99.90
20598;DHT22;10457;48.770;11.446;2022-09-03T19:31:37;17.30;99.90
20598;DHT22;10457;48.770;11.446;2022-09-03T19:37:23;17.20;99.90
20598;DHT22;10457;48.770;11.446;2022-09-03T19:43:13;17.20;99.90
20598;DHT22;10457;48.770;11.446;2022-09-03T19:49:05;17.20;99.90
20598;DHT22;10457;48.770;11.446;2022-09-03T19:54:52;17.10;99.90
20598;DHT22;10457;48.770;11.446;2022-09-03T20:00:34;17.00;99.90
20598;DHT22;10457;48.770;11.446;2022-09-03T20:06:13;16.80;99.90
20598;DHT22;10457;48.770;11.446;2022-09-03T20:11:53;16.80;99.90
20598;DHT22;10457;48.770;11.446;2022-09-03T20:17:22;16.70;99.90
20598;DHT22;10457;48.770;11.446;2022-09-03T20:22:53;16.60;99.90
20598;DHT22;10457;48.770;11.446;2022-09-03T20:28:32;16.60;99.90
20598;DHT22;10457;48.770;11.446;2022-09-03T20:34:13;16.50;99.90
20598;DHT22;10457;48.770;11.446;2022-09-03T20:39:52;16.40;99.90
20598;DHT22;10457;48.770;11.446;2022-09-03T20:45:31;16.20;99.90
20598;DHT22;10457;48.770;11.446;2022-09-03T20:51:02;16.10;99.90
20598;DHT22;10457;48.770;11.446;2022-09-03T20:56:32;16.10;99.90
20598;DHT22;10457;48.770;11.446;2022-09-03T21:02:06;16.10;99.90
20598;DHT22;10457;48.770;11.446;2022-09-03T21:07:42;16.10;99.90
20598;DHT22;10457;48.770;11.446;2022-09-03T21:13:12;16.00;99.90
20598;DHT22;10457;48.770;11.446;2022-09-03T21:18:43;16.00;99.90
20598;DHT22;10457;48.770;11.446;2022-09-03T21:24:15;15.90;99.90
20598;DHT22;10457;48.770;11.446;2022-09-03T21:29:41;15.80;99.90
20598;DHT22;10457;48.770;11.446;2022-09-03T21:35:12;15.80;99.90
20598;DHT22;10457;48.770;11.446;2022-09-03T21:40:46;16.00;99.90
20598;DHT22;10457;48.770;11.446;2022-09-03T21:46:14;15.80;99.90
20598;DHT22;10457;48.770;11.446;2022-09-03T21:51:42;15.80;99.90
20598;DHT22;10457;48.770;11.446;2022-09-03T21:57:12;15.80;99.90
20598;DHT22;10457;48.770;11.446;2022-09-03T22:02:38;15.90;99.90
20598;DHT22;10457;48.770;11.446;2022-09-03T22:08:10;15.80;99.90
20598;DHT22;10457;48.770;11.446;2022-09-03T22:13:42;15.80;99.90
20598;DHT22;10457;48.770;11.446;2022-09-03T22:19:09;15.60;99.90
20598;DHT22;10457;48.770;11.446;2022-09-03T22:24:37;15.80;99.90
20598;DHT22;10457;48.770;11.446;2022-09-03T22:30:05;15.60;99.90
20598;DHT22;10457;48.770;11.446;2022-09-03T22:35:43;15.50;99.90
20598;DHT22;10457;48.770;11.446;2022-09-03T22:41:27;15.30;99.90
20598;DHT22;10457;48.770;11.446;2022-09-03T22:47:03;15.30;99.90
20598;DHT22;10457;48.770;11.446;2022-09-03T22:52:31;15.30;99.90
20598;DHT22;10457;48.770;11.446;2022-09-03T22:57:59;15.20;99.90
20598;DHT22;10457;48.770;11.446;2022-09-03T23:03:30;15.10;99.90
20598;DHT22;10457;48.770;11.446;2022-09-03T23:09:00;15.10;99.90
20598;DHT22;10457;48.770;11.446;2022-09-03T23:14:27;15.00;99.90
20598;DHT22;10457;48.770;11.446;2022-09-03T23:19:58;15.00;99.90
20598;DHT22;10457;48.770;11.446;2022-09-03T23:25:27;15.00;99.90
20598;DHT22;10457;48.770;11.446;2022-09-03T23:30:51;14.90;99.90
20598;DHT22;10457;48.770;11.446;2022-09-03T23:36:23;14.90;99.90
20598;DHT22;10457;48.770;11.446;2022-09-03T23:42:05;14.90;99.90
20598;DHT22;10457;48.770;11.446;2022-09-03T23:47:38;14.90;99.90
20598;DHT22;10457;48.770;11.446;2022-09-03T23:53:18;15.00;99.90
20598;DHT22;10457;48.770;11.446;2022-09-03T23:58:53;15.00;99.90
